KAPS

Port of South Louisiana Executive Regional Airport

Reserve, Louisiana, USA
METAR KAPS 190835Z AUTO 00000KT 4SM BR CLR 26/25 A2992 RMK AO2 T02560245
Observed Flight Rules
Sep-19 @ 08:35 UTC (30 minutes ago) Marginal Visual Flight Rules
Visibility Clouds Conditions
4 miles
  • Clear skies
  • Mist
Temperatures Readings
Current 26°C / 79°F
Dewpoint 25°C / 77°F
Humidity 94%
Altimeter 29.92" Hg
Pressure 1013 hPa
Elevation 2
METAR KAPS 190835Z AUTO 00000KT 4SM BR CLR 26/25 A2992 RMK AO2 T02560245
Observed Flight Rules
Sep-19 @ 08:35 UTC
(30 minutes ago)
MVFR
Clouds
  • Clear skies
Conditions
  • Mist
Temperature Dewpoint
26°C / 79°F 25°C / 77°F
Humidity Altimeter Pressure
94% 29.92" Hg 1013 hPa